Time Latitude Longitude Accuracy (66% radius in meters) Altitude (meters) Speed (km/hour) Bearing (degrees) Battery (%) GPS flag
06:55:45 57.204015 60.118307 0 0 0 0 1 delete
06:55:44 57.204020 60.118297 0 0 0 0 1 delete
06:55:43 57.204027 60.118284 0 0 0 0 1 delete
06:55:42 57.204040 60.118260 0 0 0 0 1 delete
06:55:41 57.204060 60.118225 0 0 0 0 1 delete
06:55:40 57.204082 60.118187 0 0 0 0 1 delete
06:55:39 57.204103 60.118153 0 0 0 0 1 delete
06:55:38 57.204121 60.118126 0 0 0 0 1 delete
06:55:37 57.204139 60.118097 0 0 0 0 1 delete
06:55:36 57.204158 60.118065 0 0 0 0 1 delete
06:55:35 57.204183 60.118025 0 0 0 0 1 delete
06:55:34 57.204207 60.117984 0 0 0 0 1 delete
06:55:33 57.204231 60.117946 0 0 0 0 1 delete
06:55:32 57.204253 60.117909 0 0 0 0 1 delete
06:55:31 57.204278 60.117870 0 0 0 0 1 delete
06:55:30 57.204308 60.117822 0 0 0 0 1 delete
06:55:29 57.204340 60.117774 0 0 0 0 1 delete
06:55:28 57.204374 60.117724 0 0 0 0 1 delete
06:55:27 57.204407 60.117680 0 0 0 0 1 delete
06:55:26 57.204439 60.117640 0 0 0 0 1 delete
06:55:25 57.204470 60.117609 0 0 0 0 1 delete
06:55:24 57.204504 60.117578 0 0 0 0 1 delete
06:55:23 57.204540 60.117548 0 0 0 0 1 delete
06:55:22 57.204577 60.117527 0 0 0 0 1 delete
06:55:21 57.204617 60.117520 0 0 0 0 1 delete
06:55:20 57.204659 60.117524 0 0 0 0 1 delete
06:55:19 57.204705 60.117524 0 0 0 0 1 delete
06:55:18 57.204751 60.117523 0 0 0 0 1 delete
06:55:17 57.204796 60.117520 0 0 0 0 1 delete
06:55:16 57.204839 60.117528 0 0 0 0 1 delete
06:55:15 57.204883 60.117538 0 0 0 0 1 delete
06:55:14 57.204920 60.117557 0 0 0 0 1 delete
06:55:13 57.204953 60.117578 0 0 0 0 1 delete
06:55:12 57.204984 60.117596 0 0 0 0 1 delete
06:55:11 57.205017 60.117610 0 0 0 0 1 delete
06:55:10 57.205050 60.117620 0 0 0 0 1 delete
06:55:09 57.205080 60.117633 0 0 0 0 1 delete
06:55:08 57.205108 60.117647 0 0 0 0 1 delete
06:55:07 57.205130 60.117661 0 0 0 0 1 delete
06:55:06 57.205146 60.117676 0 0 0 0 1 delete
06:55:05 57.205156 60.117688 0 0 0 0 1 delete
06:55:04 57.205160 60.117701 0 0 0 0 1 delete
06:55:03 57.205162 60.117698 0 0 0 0 1 delete
06:55:02 57.205163 60.117674 0 0 0 0 1 delete
06:55:01 57.205167 60.117635 0 0 0 0 1 delete
06:55:00 57.205171 60.117593 0 0 0 0 1 delete
06:54:59 57.205174 60.117560 0 0 0 0 1 delete
06:54:58 57.205177 60.117525 0 0 0 0 1 delete
06:54:57 57.205182 60.117486 0 0 0 0 1 delete
06:54:56 57.205186 60.117448 0 0 0 0 1 delete